sensor_id;sensor_type;location;lat;lon;timestamp;P1;durP1;ratioP1;P2;durP2;ratioP2
63218;SDS011;49320;52.512;13.448;2024-03-08T00:00:10;19.25;;;15.00;;
63218;SDS011;49320;52.512;13.448;2024-03-08T00:02:42;19.95;;;13.77;;
63218;SDS011;49320;52.512;13.448;2024-03-08T00:05:09;19.50;;;14.82;;
63218;SDS011;49320;52.512;13.448;2024-03-08T00:07:37;20.85;;;15.60;;
63218;SDS011;49320;52.512;13.448;2024-03-08T00:10:05;17.60;;;15.13;;
63218;SDS011;49320;52.512;13.448;2024-03-08T00:12:41;18.33;;;14.93;;
63218;SDS011;49320;52.512;13.448;2024-03-08T00:15:14;18.80;;;14.50;;
63218;SDS011;49320;52.512;13.448;2024-03-08T00:17:45;18.52;;;14.35;;
63218;SDS011;49320;52.512;13.448;2024-03-08T00:20:14;19.42;;;14.65;;
63218;SDS011;49320;52.512;13.448;2024-03-08T00:22:45;17.55;;;14.57;;
63218;SDS011;49320;52.512;13.448;2024-03-08T00:25:12;18.02;;;14.77;;
63218;SDS011;49320;52.512;13.448;2024-03-08T00:27:39;18.10;;;14.43;;
63218;SDS011;49320;52.512;13.448;2024-03-08T00:30:07;19.65;;;14.88;;
63218;SDS011;49320;52.512;13.448;2024-03-08T00:32:35;19.33;;;14.88;;
63218;SDS011;49320;52.512;13.448;2024-03-08T00:35:03;18.50;;;14.93;;
63218;SDS011;49320;52.512;13.448;2024-03-08T00:37:33;18.67;;;15.07;;
63218;SDS011;49320;52.512;13.448;2024-03-08T00:40:00;18.02;;;14.48;;
63218;SDS011;49320;52.512;13.448;2024-03-08T00:42:27;17.27;;;14.02;;
63218;SDS011;49320;52.512;13.448;2024-03-08T00:44:54;20.33;;;14.82;;
63218;SDS011;49320;52.512;13.448;2024-03-08T00:47:21;18.55;;;14.57;;
63218;SDS011;49320;52.512;13.448;2024-03-08T00:49:48;17.95;;;14.48;;
63218;SDS011;49320;52.512;13.448;2024-03-08T00:52:15;17.00;;;14.13;;
63218;SDS011;49320;52.512;13.448;2024-03-08T00:54:44;17.80;;;14.07;;
63218;SDS011;49320;52.512;13.448;2024-03-08T00:57:11;20.67;;;14.40;;
63218;SDS011;49320;52.512;13.448;2024-03-08T00:59:38;20.15;;;14.40;;
63218;SDS011;49320;52.512;13.448;2024-03-08T01:02:05;16.02;;;13.15;;
63218;SDS011;49320;52.512;13.448;2024-03-08T01:04:32;18.58;;;14.35;;
63218;SDS011;49320;52.512;13.448;2024-03-08T01:06:59;18.80;;;14.82;;
63218;SDS011;49320;52.512;13.448;2024-03-08T01:09:27;16.02;;;13.63;;
63218;SDS011;49320;52.512;13.448;2024-03-08T01:11:54;18.65;;;13.32;;
63218;SDS011;49320;52.512;13.448;2024-03-08T01:14:22;19.08;;;14.38;;
63218;SDS011;49320;52.512;13.448;2024-03-08T01:16:52;17.38;;;13.90;;
63218;SDS011;49320;52.512;13.448;2024-03-08T01:19:19;18.63;;;14.38;;
63218;SDS011;49320;52.512;13.448;2024-03-08T01:21:45;20.25;;;15.15;;
63218;SDS011;49320;52.512;13.448;2024-03-08T01:24:12;19.67;;;14.93;;
63218;SDS011;49320;52.512;13.448;2024-03-08T01:26:39;20.77;;;14.50;;
63218;SDS011;49320;52.512;13.448;2024-03-08T01:29:06;20.92;;;14.80;;
63218;SDS011;49320;52.512;13.448;2024-03-08T01:31:34;17.65;;;13.50;;
63218;SDS011;49320;52.512;13.448;2024-03-08T01:34:03;19.65;;;14.00;;
63218;SDS011;49320;52.512;13.448;2024-03-08T01:36:29;17.77;;;13.95;;
63218;SDS011;49320;52.512;13.448;2024-03-08T01:38:56;17.90;;;13.98;;
63218;SDS011;49320;52.512;13.448;2024-03-08T01:41:24;20.23;;;15.13;;
63218;SDS011;49320;52.512;13.448;2024-03-08T01:43:51;20.20;;;14.63;;
63218;SDS011;49320;52.512;13.448;2024-03-08T01:46:19;18.20;;;13.98;;
63218;SDS011;49320;52.512;13.448;2024-03-08T01:48:48;17.92;;;14.40;;
63218;SDS011;49320;52.512;13.448;2024-03-08T01:51:18;19.88;;;15.25;;
63218;SDS011;49320;52.512;13.448;2024-03-08T01:53:46;18.50;;;14.88;;
63218;SDS011;49320;52.512;13.448;2024-03-08T01:56:15;19.13;;;14.73;;
63218;SDS011;49320;52.512;13.448;2024-03-08T01:58:44;18.75;;;14.15;;
63218;SDS011;49320;52.512;13.448;2024-03-08T02:01:13;19.38;;;14.10;;
63218;SDS011;49320;52.512;13.448;2024-03-08T02:03:42;18.77;;;14.77;;
63218;SDS011;49320;52.512;13.448;2024-03-08T02:06:11;19.20;;;14.98;;
63218;SDS011;49320;52.512;13.448;2024-03-08T02:08:43;19.10;;;14.65;;
63218;SDS011;49320;52.512;13.448;2024-03-08T02:11:12;17.88;;;14.10;;
63218;SDS011;49320;52.512;13.448;2024-03-08T02:13:40;20.35;;;14.98;;
63218;SDS011;49320;52.512;13.448;2024-03-08T02:16:07;19.13;;;14.38;;
63218;SDS011;49320;52.512;13.448;2024-03-08T02:18:35;18.13;;;14.55;;
63218;SDS011;49320;52.512;13.448;2024-03-08T02:21:03;18.40;;;14.73;;
63218;SDS011;49320;52.512;13.448;2024-03-08T02:23:33;20.92;;;15.23;;
63218;SDS011;49320;52.512;13.448;2024-03-08T02:26:00;19.65;;;14.45;;
63218;SDS011;49320;52.512;13.448;2024-03-08T02:28:27;19.27;;;14.40;;
63218;SDS011;49320;52.512;13.448;2024-03-08T02:30:55;18.70;;;14.77;;
63218;SDS011;49320;52.512;13.448;2024-03-08T02:33:24;18.35;;;13.73;;
63218;SDS011;49320;52.512;13.448;2024-03-08T02:35:53;18.30;;;14.52;;
63218;SDS011;49320;52.512;13.448;2024-03-08T02:38:21;18.63;;;14.27;;
63218;SDS011;49320;52.512;13.448;2024-03-08T02:40:51;20.40;;;15.20;;
63218;SDS011;49320;52.512;13.448;2024-03-08T02:43:19;19.17;;;13.82;;
63218;SDS011;49320;52.512;13.448;2024-03-08T02:45:49;17.55;;;15.00;;
63218;SDS011;49320;52.512;13.448;2024-03-08T02:48:16;20.10;;;15.32;;
63218;SDS011;49320;52.512;13.448;2024-03-08T02:50:43;21.42;;;16.02;;
63218;SDS011;49320;52.512;13.448;2024-03-08T02:53:12;17.88;;;14.93;;
63218;SDS011;49320;52.512;13.448;2024-03-08T02:55:40;18.17;;;14.63;;
63218;SDS011;49320;52.512;13.448;2024-03-08T02:58:08;18.63;;;15.15;;
63218;SDS011;49320;52.512;13.448;2024-03-08T03:00:37;20.35;;;14.63;;
63218;SDS011;49320;52.512;13.448;2024-03-08T03:03:08;20.50;;;15.82;;
63218;SDS011;49320;52.512;13.448;2024-03-08T03:05:36;18.77;;;14.38;;
63218;SDS011;49320;52.512;13.448;2024-03-08T03:08:03;20.98;;;16.17;;
63218;SDS011;49320;52.512;13.448;2024-03-08T03:10:36;21.63;;;16.33;;
63218;SDS011;49320;52.512;13.448;2024-03-08T03:13:03;20.85;;;15.45;;
63218;SDS011;49320;52.512;13.448;2024-03-08T03:15:34;21.63;;;16.25;;
63218;SDS011;49320;52.512;13.448;2024-03-08T03:18:02;21.67;;;16.38;;
63218;SDS011;49320;52.512;13.448;2024-03-08T03:20:30;19.75;;;15.07;;
63218;SDS011;49320;52.512;13.448;2024-03-08T03:23:03;18.50;;;15.48;;
63218;SDS011;49320;52.512;13.448;2024-03-08T03:25:30;20.02;;;16.10;;
63218;SDS011;49320;52.512;13.448;2024-03-08T03:28:01;19.35;;;15.77;;
63218;SDS011;49320;52.512;13.448;2024-03-08T03:30:29;21.50;;;16.02;;
63218;SDS011;49320;52.512;13.448;2024-03-08T03:33:00;21.92;;;16.13;;
63218;SDS011;49320;52.512;13.448;2024-03-08T03:35:28;21.45;;;15.95;;
63218;SDS011;49320;52.512;13.448;2024-03-08T03:37:55;21.23;;;16.17;;
63218;SDS011;49320;52.512;13.448;2024-03-08T03:40:41;21.00;;;16.77;;
63218;SDS011;49320;52.512;13.448;2024-03-08T03:43:08;22.73;;;16.95;;
63218;SDS011;49320;52.512;13.448;2024-03-08T03:45:39;23.20;;;17.48;;
63218;SDS011;49320;52.512;13.448;2024-03-08T03:48:08;24.95;;;18.23;;
63218;SDS011;49320;52.512;13.448;2024-03-08T03:50:37;22.17;;;16.38;;
63218;SDS011;49320;52.512;13.448;2024-03-08T03:53:04;22.52;;;17.38;;
63218;SDS011;49320;52.512;13.448;2024-03-08T03:55:35;21.83;;;16.70;;
63218;SDS011;49320;52.512;13.448;2024-03-08T03:58:07;21.77;;;16.45;;
63218;SDS011;49320;52.512;13.448;2024-03-08T04:00:36;20.85;;;15.65;;
63218;SDS011;49320;52.512;13.448;2024-03-08T04:03:03;20.55;;;15.50;;
63218;SDS011;49320;52.512;13.448;2024-03-08T04:05:33;25.42;;;17.95;;
63218;SDS011;49320;52.512;13.448;2024-03-08T04:08:00;24.27;;;17.42;;
63218;SDS011;49320;52.512;13.448;2024-03-08T04:10:27;22.75;;;16.85;;
63218;SDS011;49320;52.512;13.448;2024-03-08T04:12:54;23.48;;;17.33;;
63218;SDS011;49320;52.512;13.448;2024-03-08T04:15:20;22.77;;;18.05;;
63218;SDS011;49320;52.512;13.448;2024-03-08T04:17:47;22.98;;;17.95;;
63218;SDS011;49320;52.512;13.448;2024-03-08T04:20:14;23.45;;;17.70;;
63218;SDS011;49320;52.512;13.448;2024-03-08T04:22:43;22.95;;;17.75;;
63218;SDS011;49320;52.512;13.448;2024-03-08T04:25:13;20.88;;;16.75;;
63218;SDS011;49320;52.512;13.448;2024-03-08T04:27:41;25.25;;;18.55;;
63218;SDS011;49320;52.512;13.448;2024-03-08T04:30:08;22.20;;;17.10;;
63218;SDS011;49320;52.512;13.448;2024-03-08T04:32:36;22.98;;;18.02;;
63218;SDS011;49320;52.512;13.448;2024-03-08T04:35:04;22.10;;;17.13;;
63218;SDS011;49320;52.512;13.448;2024-03-08T04:37:31;24.25;;;18.42;;
63218;SDS011;49320;52.512;13.448;2024-03-08T04:39:58;24.95;;;18.50;;
63218;SDS011;49320;52.512;13.448;2024-03-08T04:42:29;21.40;;;17.58;;
63218;SDS011;49320;52.512;13.448;2024-03-08T04:44:58;22.52;;;16.90;;
63218;SDS011;49320;52.512;13.448;2024-03-08T04:47:26;24.40;;;17.55;;
63218;SDS011;49320;52.512;13.448;2024-03-08T04:49:52;23.33;;;18.23;;
63218;SDS011;49320;52.512;13.448;2024-03-08T04:52:20;23.23;;;18.08;;
63218;SDS011;49320;52.512;13.448;2024-03-08T04:54:48;24.38;;;17.88;;
63218;SDS011;49320;52.512;13.448;2024-03-08T04:57:15;26.20;;;18.77;;
63218;SDS011;49320;52.512;13.448;2024-03-08T04:59:45;21.63;;;17.58;;
63218;SDS011;49320;52.512;13.448;2024-03-08T05:02:12;25.55;;;17.67;;
63218;SDS011;49320;52.512;13.448;2024-03-08T05:04:39;23.55;;;17.25;;
63218;SDS011;49320;52.512;13.448;2024-03-08T05:07:05;24.70;;;17.27;;
63218;SDS011;49320;52.512;13.448;2024-03-08T05:09:33;24.40;;;17.65;;
63218;SDS011;49320;52.512;13.448;2024-03-08T05:12:02;24.23;;;18.75;;
63218;SDS011;49320;52.512;13.448;2024-03-08T05:14:29;24.17;;;17.83;;
63218;SDS011;49320;52.512;13.448;2024-03-08T05:16:56;22.08;;;17.15;;
63218;SDS011;49320;52.512;13.448;2024-03-08T05:19:23;23.58;;;18.30;;
63218;SDS011;49320;52.512;13.448;2024-03-08T05:21:49;24.30;;;18.23;;
63218;SDS011;49320;52.512;13.448;2024-03-08T05:24:16;23.08;;;17.60;;
63218;SDS011;49320;52.512;13.448;2024-03-08T05:26:44;22.77;;;17.45;;
63218;SDS011;49320;52.512;13.448;2024-03-08T05:29:13;23.48;;;18.38;;
63218;SDS011;49320;52.512;13.448;2024-03-08T05:31:48;25.48;;;19.58;;
63218;SDS011;49320;52.512;13.448;2024-03-08T05:34:16;25.35;;;18.27;;
63218;SDS011;49320;52.512;13.448;2024-03-08T05:36:45;23.63;;;18.02;;
63218;SDS011;49320;52.512;13.448;2024-03-08T05:39:13;22.45;;;17.75;;
63218;SDS011;49320;52.512;13.448;2024-03-08T05:41:40;24.33;;;18.48;;
63218;SDS011;49320;52.512;13.448;2024-03-08T05:44:08;23.85;;;18.58;;
63218;SDS011;49320;52.512;13.448;2024-03-08T05:46:36;26.45;;;19.92;;
63218;SDS011;49320;52.512;13.448;2024-03-08T05:49:03;23.15;;;18.08;;
63218;SDS011;49320;52.512;13.448;2024-03-08T05:51:35;23.52;;;18.33;;
63218;SDS011;49320;52.512;13.448;2024-03-08T05:54:05;25.95;;;19.77;;
63218;SDS011;49320;52.512;13.448;2024-03-08T05:56:40;22.40;;;17.13;;
63218;SDS011;49320;52.512;13.448;2024-03-08T05:59:08;24.65;;;18.05;;
63218;SDS011;49320;52.512;13.448;2024-03-08T06:01:36;23.15;;;17.70;;
63218;SDS011;49320;52.512;13.448;2024-03-08T06:04:03;23.23;;;18.73;;
63218;SDS011;49320;52.512;13.448;2024-03-08T06:06:30;23.50;;;18.38;;
63218;SDS011;49320;52.512;13.448;2024-03-08T06:08:57;22.55;;;18.83;;
63218;SDS011;49320;52.512;13.448;2024-03-08T06:11:25;24.02;;;19.20;;
63218;SDS011;49320;52.512;13.448;2024-03-08T06:13:57;25.58;;;19.23;;
63218;SDS011;49320;52.512;13.448;2024-03-08T06:16:26;25.38;;;19.25;;
63218;SDS011;49320;52.512;13.448;2024-03-08T06:18:56;24.38;;;19.10;;
63218;SDS011;49320;52.512;13.448;2024-03-08T06:21:26;26.13;;;19.67;;
63218;SDS011;49320;52.512;13.448;2024-03-08T06:23:53;25.98;;;20.05;;
63218;SDS011;49320;52.512;13.448;2024-03-08T06:26:24;28.77;;;20.65;;
63218;SDS011;49320;52.512;13.448;2024-03-08T06:28:55;24.05;;;18.83;;
63218;SDS011;49320;52.512;13.448;2024-03-08T06:31:23;29.15;;;20.52;;
63218;SDS011;49320;52.512;13.448;2024-03-08T06:33:50;26.05;;;20.27;;
63218;SDS011;49320;52.512;13.448;2024-03-08T06:36:17;27.65;;;19.52;;
63218;SDS011;49320;52.512;13.448;2024-03-08T06:38:51;26.48;;;19.67;;
63218;SDS011;49320;52.512;13.448;2024-03-08T06:41:19;27.48;;;20.17;;
63218;SDS011;49320;52.512;13.448;2024-03-08T06:43:46;27.65;;;20.83;;
63218;SDS011;49320;52.512;13.448;2024-03-08T06:46:15;24.10;;;18.83;;
63218;SDS011;49320;52.512;13.448;2024-03-08T06:48:42;28.10;;;21.75;;
63218;SDS011;49320;52.512;13.448;2024-03-08T06:51:09;28.42;;;21.33;;
63218;SDS011;49320;52.512;13.448;2024-03-08T06:53:37;29.25;;;21.25;;
63218;SDS011;49320;52.512;13.448;2024-03-08T06:56:05;24.92;;;19.88;;
63218;SDS011;49320;52.512;13.448;2024-03-08T06:58:34;25.45;;;19.73;;
63218;SDS011;49320;52.512;13.448;2024-03-08T07:01:00;28.98;;;20.60;;
63218;SDS011;49320;52.512;13.448;2024-03-08T07:03:30;29.77;;;21.20;;
63218;SDS011;49320;52.512;13.448;2024-03-08T07:05:58;29.00;;;20.52;;
63218;SDS011;49320;52.512;13.448;2024-03-08T07:08:25;26.55;;;19.33;;
63218;SDS011;49320;52.512;13.448;2024-03-08T07:10:53;27.52;;;20.92;;
63218;SDS011;49320;52.512;13.448;2024-03-08T07:13:20;29.10;;;20.00;;
63218;SDS011;49320;52.512;13.448;2024-03-08T07:15:48;27.27;;;19.67;;
63218;SDS011;49320;52.512;13.448;2024-03-08T07:18:15;26.52;;;19.83;;
63218;SDS011;49320;52.512;13.448;2024-03-08T07:20:42;25.60;;;18.55;;
63218;SDS011;49320;52.512;13.448;2024-03-08T07:23:12;26.67;;;20.10;;
63218;SDS011;49320;52.512;13.448;2024-03-08T07:25:59;23.85;;;18.23;;
63218;SDS011;49320;52.512;13.448;2024-03-08T07:28:27;26.42;;;19.38;;
63218;SDS011;49320;52.512;13.448;2024-03-08T07:30:57;26.25;;;18.50;;
63218;SDS011;49320;52.512;13.448;2024-03-08T07:33:52;24.33;;;18.65;;
63218;SDS011;49320;52.512;13.448;2024-03-08T07:36:19;25.85;;;19.90;;
63218;SDS011;49320;52.512;13.448;2024-03-08T07:38:48;26.75;;;19.08;;
63218;SDS011;49320;52.512;13.448;2024-03-08T07:41:15;25.55;;;19.23;;
63218;SDS011;49320;52.512;13.448;2024-03-08T07:43:42;28.85;;;21.02;;
63218;SDS011;49320;52.512;13.448;2024-03-08T07:46:09;28.00;;;21.40;;
63218;SDS011;49320;52.512;13.448;2024-03-08T07:48:36;29.38;;;21.83;;
63218;SDS011;49320;52.512;13.448;2024-03-08T07:51:03;27.23;;;20.42;;
63218;SDS011;49320;52.512;13.448;2024-03-08T07:53:30;27.55;;;20.92;;
63218;SDS011;49320;52.512;13.448;2024-03-08T07:55:57;26.77;;;20.52;;
63218;SDS011;49320;52.512;13.448;2024-03-08T07:58:24;28.50;;;22.40;;
63218;SDS011;49320;52.512;13.448;2024-03-08T08:00:51;32.38;;;24.05;;
63218;SDS011;49320;52.512;13.448;2024-03-08T08:03:18;32.28;;;23.88;;
63218;SDS011;49320;52.512;13.448;2024-03-08T08:05:47;31.98;;;24.30;;
63218;SDS011;49320;52.512;13.448;2024-03-08T08:08:15;30.77;;;24.05;;
63218;SDS011;49320;52.512;13.448;2024-03-08T08:10:42;28.38;;;22.08;;
63218;SDS011;49320;52.512;13.448;2024-03-08T08:13:09;28.30;;;21.63;;
63218;SDS011;49320;52.512;13.448;2024-03-08T08:15:36;25.77;;;20.50;;
63218;SDS011;49320;52.512;13.448;2024-03-08T08:18:04;28.98;;;21.80;;
63218;SDS011;49320;52.512;13.448;2024-03-08T08:20:33;29.65;;;20.90;;
63218;SDS011;49320;52.512;13.448;2024-03-08T08:23:00;25.00;;;20.27;;
63218;SDS011;49320;52.512;13.448;2024-03-08T08:25:27;23.92;;;19.88;;
63218;SDS011;49320;52.512;13.448;2024-03-08T08:27:54;27.50;;;20.20;;
63218;SDS011;49320;52.512;13.448;2024-03-08T08:30:21;26.27;;;20.00;;
63218;SDS011;49320;52.512;13.448;2024-03-08T08:32:48;25.25;;;20.10;;
63218;SDS011;49320;52.512;13.448;2024-03-08T08:35:16;24.98;;;18.95;;
63218;SDS011;49320;52.512;13.448;2024-03-08T08:37:44;23.65;;;18.95;;
63218;SDS011;49320;52.512;13.448;2024-03-08T08:40:11;24.90;;;18.05;;
63218;SDS011;49320;52.512;13.448;2024-03-08T08:42:41;25.50;;;19.30;;
63218;SDS011;49320;52.512;13.448;2024-03-08T08:45:08;25.85;;;19.13;;
63218;SDS011;49320;52.512;13.448;2024-03-08T08:47:43;30.65;;;22.88;;
63218;SDS011;49320;52.512;13.448;2024-03-08T08:50:13;21.92;;;18.17;;
63218;SDS011;49320;52.512;13.448;2024-03-08T08:52:40;23.38;;;16.95;;
63218;SDS011;49320;52.512;13.448;2024-03-08T08:55:10;24.75;;;18.48;;
63218;SDS011;49320;52.512;13.448;2024-03-08T08:57:41;24.48;;;17.98;;
63218;SDS011;49320;52.512;13.448;2024-03-08T09:00:09;22.05;;;17.70;;
63218;SDS011;49320;52.512;13.448;2024-03-08T09:02:41;26.63;;;19.35;;
63218;SDS011;49320;52.512;13.448;2024-03-08T09:05:09;22.73;;;17.73;;
63218;SDS011;49320;52.512;13.448;2024-03-08T09:07:36;25.60;;;18.30;;
63218;SDS011;49320;52.512;13.448;2024-03-08T09:10:04;22.10;;;17.65;;
63218;SDS011;49320;52.512;13.448;2024-03-08T09:12:34;26.30;;;19.05;;
63218;SDS011;49320;52.512;13.448;2024-03-08T09:15:01;26.45;;;18.77;;
63218;SDS011;49320;52.512;13.448;2024-03-08T09:17:28;24.35;;;18.60;;
63218;SDS011;49320;52.512;13.448;2024-03-08T09:19:55;22.08;;;17.38;;
63218;SDS011;49320;52.512;13.448;2024-03-08T09:22:24;21.58;;;17.73;;
63218;SDS011;49320;52.512;13.448;2024-03-08T09:24:52;23.10;;;18.58;;
63218;SDS011;49320;52.512;13.448;2024-03-08T09:27:19;24.10;;;18.27;;
63218;SDS011;49320;52.512;13.448;2024-03-08T09:29:46;28.33;;;19.33;;
63218;SDS011;49320;52.512;13.448;2024-03-08T09:32:12;25.63;;;19.85;;
63218;SDS011;49320;52.512;13.448;2024-03-08T09:34:39;26.95;;;19.65;;
63218;SDS011;49320;52.512;13.448;2024-03-08T09:37:06;26.00;;;19.60;;
63218;SDS011;49320;52.512;13.448;2024-03-08T09:39:35;25.42;;;18.92;;
63218;SDS011;49320;52.512;13.448;2024-03-08T09:42:02;25.80;;;19.10;;
63218;SDS011;49320;52.512;13.448;2024-03-08T09:44:29;23.15;;;18.25;;
63218;SDS011;49320;52.512;13.448;2024-03-08T09:46:57;24.83;;;18.98;;
63218;SDS011;49320;52.512;13.448;2024-03-08T09:49:25;22.58;;;18.42;;
63218;SDS011;49320;52.512;13.448;2024-03-08T09:51:52;23.52;;;18.38;;
63218;SDS011;49320;52.512;13.448;2024-03-08T09:54:19;24.80;;;19.20;;
63218;SDS011;49320;52.512;13.448;2024-03-08T09:56:50;22.40;;;17.60;;
63218;SDS011;49320;52.512;13.448;2024-03-08T09:59:18;25.08;;;18.30;;
63218;SDS011;49320;52.512;13.448;2024-03-08T10:01:54;22.15;;;17.55;;
63218;SDS011;49320;52.512;13.448;2024-03-08T10:04:22;22.80;;;18.02;;
63218;SDS011;49320;52.512;13.448;2024-03-08T10:06:49;25.05;;;20.00;;
63218;SDS011;49320;52.512;13.448;2024-03-08T10:09:16;21.23;;;17.10;;
63218;SDS011;49320;52.512;13.448;2024-03-08T10:11:43;23.40;;;17.85;;
63218;SDS011;49320;52.512;13.448;2024-03-08T10:14:11;22.27;;;17.08;;
63218;SDS011;49320;52.512;13.448;2024-03-08T10:16:39;22.92;;;17.88;;
63218;SDS011;49320;52.512;13.448;2024-03-08T10:19:06;23.35;;;17.27;;
63218;SDS011;49320;52.512;13.448;2024-03-08T10:21:34;21.85;;;17.17;;
63218;SDS011;49320;52.512;13.448;2024-03-08T10:24:02;23.25;;;16.83;;
63218;SDS011;49320;52.512;13.448;2024-03-08T10:26:29;21.63;;;16.90;;
63218;SDS011;49320;52.512;13.448;2024-03-08T10:28:57;23.23;;;17.02;;
63218;SDS011;49320;52.512;13.448;2024-03-08T10:31:25;24.90;;;17.75;;
63218;SDS011;49320;52.512;13.448;2024-03-08T10:33:52;22.20;;;17.05;;
63218;SDS011;49320;52.512;13.448;2024-03-08T10:36:19;24.42;;;16.95;;
63218;SDS011;49320;52.512;13.448;2024-03-08T10:38:46;20.30;;;15.80;;
63218;SDS011;49320;52.512;13.448;2024-03-08T10:41:14;21.05;;;15.95;;
63218;SDS011;49320;52.512;13.448;2024-03-08T10:49:32;17.60;;;13.98;;
63218;SDS011;49320;52.512;13.448;2024-03-08T10:52:10;22.17;;;15.35;;
63218;SDS011;49320;52.512;13.448;2024-03-08T10:54:38;20.20;;;15.32;;
63218;SDS011;49320;52.512;13.448;2024-03-08T10:57:11;17.95;;;13.30;;
63218;SDS011;49320;52.512;13.448;2024-03-08T10:59:40;18.75;;;14.70;;
63218;SDS011;49320;52.512;13.448;2024-03-08T11:02:12;18.38;;;14.85;;
63218;SDS011;49320;52.512;13.448;2024-03-08T11:04:39;17.77;;;14.82;;
63218;SDS011;49320;52.512;13.448;2024-03-08T11:07:15;20.02;;;14.27;;
63218;SDS011;49320;52.512;13.448;2024-03-08T11:09:45;19.38;;;14.52;;
63218;SDS011;49320;52.512;13.448;2024-03-08T11:14:59;16.27;;;13.57;;
63218;SDS011;49320;52.512;13.448;2024-03-08T11:19:58;18.38;;;13.85;;
63218;SDS011;49320;52.512;13.448;2024-03-08T11:25:01;17.48;;;14.40;;
63218;SDS011;49320;52.512;13.448;2024-03-08T11:27:35;16.65;;;13.52;;
63218;SDS011;49320;52.512;13.448;2024-03-08T11:30:06;17.30;;;14.25;;
63218;SDS011;49320;52.512;13.448;2024-03-08T11:32:45;21.25;;;14.25;;
63218;SDS011;49320;52.512;13.448;2024-03-08T11:35:21;18.15;;;14.25;;
63218;SDS011;49320;52.512;13.448;2024-03-08T11:37:51;16.98;;;13.73;;
63218;SDS011;49320;52.512;13.448;2024-03-08T11:40:18;17.40;;;14.50;;
63218;SDS011;49320;52.512;13.448;2024-03-08T11:42:47;18.15;;;14.65;;
63218;SDS011;49320;52.512;13.448;2024-03-08T11:45:15;17.98;;;14.82;;
63218;SDS011;49320;52.512;13.448;2024-03-08T11:47:44;17.58;;;13.55;;
63218;SDS011;49320;52.512;13.448;2024-03-08T11:50:14;18.63;;;14.85;;
63218;SDS011;49320;52.512;13.448;2024-03-08T11:52:42;17.45;;;14.48;;
63218;SDS011;49320;52.512;13.448;2024-03-08T11:55:10;16.50;;;13.80;;
63218;SDS011;49320;52.512;13.448;2024-03-08T11:57:39;18.67;;;14.82;;
63218;SDS011;49320;52.512;13.448;2024-03-08T12:00:14;20.40;;;14.88;;
63218;SDS011;49320;52.512;13.448;2024-03-08T12:03:02;18.38;;;13.40;;
63218;SDS011;49320;52.512;13.448;2024-03-08T12:05:33;17.30;;;13.40;;
63218;SDS011;49320;52.512;13.448;2024-03-08T12:08:04;19.48;;;14.25;;
63218;SDS011;49320;52.512;13.448;2024-03-08T12:10:33;17.23;;;14.70;;
63218;SDS011;49320;52.512;13.448;2024-03-08T12:13:01;16.75;;;14.02;;
63218;SDS011;49320;52.512;13.448;2024-03-08T12:15:37;20.25;;;15.05;;
63218;SDS011;49320;52.512;13.448;2024-03-08T12:18:05;19.30;;;15.73;;
63218;SDS011;49320;52.512;13.448;2024-03-08T12:20:33;19.52;;;15.65;;
63218;SDS011;49320;52.512;13.448;2024-03-08T12:23:00;18.10;;;14.30;;
63218;SDS011;49320;52.512;13.448;2024-03-08T12:25:27;17.02;;;13.45;;
63218;SDS011;49320;52.512;13.448;2024-03-08T12:28:12;16.98;;;14.27;;
63218;SDS011;49320;52.512;13.448;2024-03-08T12:30:48;16.63;;;13.63;;
63218;SDS011;49320;52.512;13.448;2024-03-08T12:33:20;17.50;;;13.50;;
63218;SDS011;49320;52.512;13.448;2024-03-08T12:35:52;16.95;;;13.48;;
63218;SDS011;49320;52.512;13.448;2024-03-08T12:38:22;16.50;;;12.65;;
63218;SDS011;49320;52.512;13.448;2024-03-08T12:40:55;15.38;;;13.10;;
63218;SDS011;49320;52.512;13.448;2024-03-08T12:43:27;20.00;;;13.55;;
63218;SDS011;49320;52.512;13.448;2024-03-08T12:45:58;15.20;;;13.00;;
63218;SDS011;49320;52.512;13.448;2024-03-08T12:48:25;18.23;;;13.65;;
63218;SDS011;49320;52.512;13.448;2024-03-08T12:50:52;18.42;;;14.20;;
63218;SDS011;49320;52.512;13.448;2024-03-08T12:53:20;20.20;;;14.52;;
63218;SDS011;49320;52.512;13.448;2024-03-08T12:55:47;16.95;;;13.88;;
63218;SDS011;49320;52.512;13.448;2024-03-08T12:58:14;17.63;;;13.52;;
63218;SDS011;49320;52.512;13.448;2024-03-08T13:00:43;18.02;;;14.18;;
63218;SDS011;49320;52.512;13.448;2024-03-08T13:03:10;18.30;;;13.25;;
63218;SDS011;49320;52.512;13.448;2024-03-08T13:05:37;16.85;;;14.02;;
63218;SDS011;49320;52.512;13.448;2024-03-08T13:08:09;18.02;;;13.77;;
63218;SDS011;49320;52.512;13.448;2024-03-08T13:10:42;18.35;;;13.85;;
63218;SDS011;49320;52.512;13.448;2024-03-08T13:13:10;15.52;;;13.27;;
63218;SDS011;49320;52.512;13.448;2024-03-08T13:15:42;16.15;;;13.10;;
63218;SDS011;49320;52.512;13.448;2024-03-08T13:18:09;15.73;;;12.93;;
63218;SDS011;49320;52.512;13.448;2024-03-08T13:20:37;14.82;;;11.95;;
63218;SDS011;49320;52.512;13.448;2024-03-08T13:23:12;16.80;;;12.75;;
63218;SDS011;49320;52.512;13.448;2024-03-08T13:25:39;15.48;;;12.07;;
63218;SDS011;49320;52.512;13.448;2024-03-08T13:28:07;16.38;;;12.43;;
63218;SDS011;49320;52.512;13.448;2024-03-08T13:30:35;18.70;;;13.90;;
63218;SDS011;49320;52.512;13.448;2024-03-08T13:33:02;14.88;;;12.10;;
63218;SDS011;49320;52.512;13.448;2024-03-08T13:35:31;16.33;;;13.23;;
63218;SDS011;49320;52.512;13.448;2024-03-08T13:37:59;16.42;;;12.13;;
63218;SDS011;49320;52.512;13.448;2024-03-08T13:40:28;16.08;;;11.95;;
63218;SDS011;49320;52.512;13.448;2024-03-08T13:42:55;16.05;;;12.45;;
63218;SDS011;49320;52.512;13.448;2024-03-08T13:45:22;16.40;;;12.68;;
63218;SDS011;49320;52.512;13.448;2024-03-08T13:47:51;15.57;;;12.15;;
63218;SDS011;49320;52.512;13.448;2024-03-08T13:50:20;17.23;;;13.38;;
63218;SDS011;49320;52.512;13.448;2024-03-08T13:52:48;17.00;;;12.23;;
63218;SDS011;49320;52.512;13.448;2024-03-08T13:55:20;15.70;;;12.65;;
63218;SDS011;49320;52.512;13.448;2024-03-08T13:57:54;15.73;;;12.70;;
63218;SDS011;49320;52.512;13.448;2024-03-08T14:00:23;16.48;;;12.57;;
63218;SDS011;49320;52.512;13.448;2024-03-08T14:02:53;15.10;;;12.32;;
63218;SDS011;49320;52.512;13.448;2024-03-08T14:05:20;14.63;;;12.23;;
63218;SDS011;49320;52.512;13.448;2024-03-08T14:07:47;14.73;;;12.15;;
63218;SDS011;49320;52.512;13.448;2024-03-08T14:10:16;14.90;;;12.05;;
63218;SDS011;49320;52.512;13.448;2024-03-08T14:12:47;14.70;;;11.50;;
63218;SDS011;49320;52.512;13.448;2024-03-08T14:15:16;15.52;;;11.60;;
63218;SDS011;49320;52.512;13.448;2024-03-08T14:17:43;17.42;;;13.23;;
63218;SDS011;49320;52.512;13.448;2024-03-08T14:20:13;19.02;;;12.90;;
63218;SDS011;49320;52.512;13.448;2024-03-08T14:22:40;15.75;;;12.27;;
63218;SDS011;49320;52.512;13.448;2024-03-08T14:25:07;15.48;;;12.40;;
63218;SDS011;49320;52.512;13.448;2024-03-08T14:27:44;14.55;;;12.35;;
63218;SDS011;49320;52.512;13.448;2024-03-08T14:30:12;14.95;;;12.70;;